Delfzijl, Netherlands
Current Conditions -  °F | °C
As of 9:25 PM on Monday 24 Nov 2014 (Local Time) from EHGG Reporting Station
Clear Clear  
Wind Chill: 32°   Ceiling: Unl
Heat Index: 37°   Visibility: 6mi
Dew Point: 37°   Wind: 7mph
Humidity: 100%   Direction: 230°SW
Pressure: 30.3"   Gusts: NA
Location:  53.33°N, 6.92°E
Report Text: EHGG 242025Z AUTO 23006KT 9999 NSC 03/03 Q1026 NOSIG
Loading
Personal Weather Stations






























Interactive Weather Map New forecast layout! Learn more

10-Day Weather Forecast

Advertisements
Track Severe Weather on mobile